createdAt,value
2023-04-11T00:08:58.438Z,996.99
2023-04-11T00:19:04.330Z,996.92
2023-04-11T00:29:09.654Z,997.05
2023-04-11T00:39:15.249Z,997.06
2023-04-11T00:49:20.846Z,996.78
2023-04-11T00:59:25.898Z,996.71
2023-04-11T01:09:31.581Z,996.79
2023-04-11T01:19:37.382Z,996.66
2023-04-11T01:29:42.882Z,996.47
2023-04-11T01:39:48.617Z,996.32
2023-04-11T01:49:54.357Z,996.07
2023-04-11T02:00:00.205Z,995.77
2023-04-11T02:10:05.751Z,996.07
2023-04-11T02:20:11.684Z,996.04
2023-04-11T02:30:19.007Z,995.93
2023-04-11T02:40:24.991Z,995.85
2023-04-11T02:50:30.263Z,995.76
2023-04-11T03:00:36.010Z,995.68
2023-04-11T03:10:42.352Z,995.77
2023-04-11T03:20:48.065Z,995.62
2023-04-11T03:30:53.892Z,995.37
2023-04-11T03:40:59.420Z,995.60
2023-04-11T03:51:05.519Z,995.66
2023-04-11T04:01:11.575Z,995.66
2023-04-11T04:11:17.098Z,995.69
2023-04-11T04:21:22.490Z,995.56
2023-04-11T04:31:28.205Z,995.79
2023-04-11T04:41:33.816Z,995.91
2023-04-11T04:51:39.157Z,995.91
2023-04-11T05:01:44.995Z,995.85
2023-04-11T05:11:50.830Z,995.65
2023-04-11T05:21:56.293Z,995.84
2023-04-11T05:32:01.737Z,995.66
2023-04-11T05:42:08.097Z,995.76
2023-04-11T05:52:14.308Z,995.95
2023-04-11T06:02:19.816Z,996.05
2023-04-11T06:12:24.500Z,996.20
2023-04-11T06:22:30.234Z,995.85
2023-04-11T06:32:36.798Z,995.98
2023-04-11T06:42:43.850Z,995.83
2023-04-11T06:52:50.750Z,995.85
2023-04-11T07:02:57.572Z,996.10
2023-04-11T07:13:03.029Z,996.09
2023-04-11T07:23:08.684Z,996.27
2023-04-11T07:33:15.540Z,996.43
2023-04-11T07:43:23.041Z,996.30
2023-04-11T07:53:29.734Z,996.43
2023-04-11T08:03:36.443Z,996.48
2023-04-11T08:13:42.944Z,996.49
2023-04-11T08:23:52.022Z,996.54
2023-04-11T08:34:00.615Z,996.49
2023-04-11T08:44:07.946Z,996.49
2023-04-11T08:54:14.609Z,996.56
2023-04-11T09:04:22.382Z,996.44
2023-04-11T09:14:29.451Z,996.54
2023-04-11T09:24:36.037Z,996.51
2023-04-11T09:34:42.746Z,996.36
2023-04-11T09:44:51.594Z,996.18
2023-04-11T09:54:56.972Z,996.07
2023-04-11T10:05:03.760Z,997.09
2023-04-11T10:15:09.467Z,997.32
2023-04-11T10:25:15.927Z,997.21
2023-04-11T10:35:22.000Z,997.41
2023-04-11T10:45:27.916Z,997.25
2023-04-11T10:55:35.643Z,997.17
2023-04-11T11:05:42.489Z,997.12
2023-04-11T11:15:48.058Z,997.26
2023-04-11T11:25:53.350Z,997.38
2023-04-11T11:35:59.255Z,997.38
2023-04-11T11:46:06.352Z,997.51
2023-04-11T11:56:13.071Z,997.46
2023-04-11T12:06:18.556Z,997.52
2023-04-11T12:16:24.244Z,997.68
2023-04-11T12:26:30.317Z,997.56
2023-04-11T12:36:36.020Z,997.51
2023-04-11T12:46:41.103Z,997.60
2023-04-11T12:56:46.800Z,997.68
2023-04-11T13:06:52.310Z,997.60
2023-04-11T13:16:57.824Z,997.39
2023-04-11T13:27:03.561Z,997.54
2023-04-11T13:37:09.345Z,997.58
2023-04-11T13:47:15.278Z,997.52
2023-04-11T13:57:20.813Z,997.56
2023-04-11T14:07:26.734Z,997.49
2023-04-11T14:17:32.221Z,997.40
2023-04-11T14:27:37.642Z,997.56
2023-04-11T14:37:43.140Z,997.61
2023-04-11T14:47:48.736Z,997.70
2023-04-11T14:57:54.694Z,997.93
2023-04-11T15:08:00.061Z,997.89
2023-04-11T15:18:05.959Z,997.92
2023-04-11T15:28:11.787Z,998.12
2023-04-11T15:38:18.189Z,998.43
2023-04-11T15:48:24.315Z,998.77
2023-04-11T15:58:30.955Z,999.45
2023-04-11T16:09:57.774Z,999.38
2023-04-11T16:20:03.090Z,999.88
2023-04-11T16:30:08.606Z,998.71
2023-04-11T16:40:14.408Z,998.67
2023-04-11T16:50:20.415Z,998.69
2023-04-11T17:00:32.110Z,998.66
2023-04-11T17:10:39.001Z,998.80
2023-04-11T17:20:47.217Z,998.92
2023-04-11T17:30:52.911Z,998.89
2023-04-11T17:41:06.742Z,999.03
2023-04-11T17:51:11.446Z,999.26
2023-04-11T18:01:17.131Z,999.39
2023-04-11T18:11:23.789Z,999.45
2023-04-11T18:21:29.564Z,999.72
2023-04-11T18:31:36.641Z,999.56
2023-04-11T18:41:43.379Z,999.47
2023-04-11T18:51:49.375Z,999.58
2023-04-11T19:01:55.126Z,999.62
2023-04-11T19:12:00.907Z,999.60
2023-04-11T19:22:08.634Z,999.61
2023-04-11T19:32:14.277Z,999.67
2023-04-11T19:42:20.377Z,999.69
2023-04-11T19:52:26.048Z,999.76
2023-04-11T20:02:31.771Z,999.62
2023-04-11T20:12:39.951Z,999.57
2023-04-11T20:22:45.111Z,999.62
2023-04-11T20:32:51.794Z,999.50
2023-04-11T20:43:01.333Z,999.51
2023-04-11T20:53:09.894Z,999.50
2023-04-11T21:03:16.170Z,999.48
2023-04-11T21:13:22.923Z,999.43
2023-04-11T21:23:28.687Z,999.35
2023-04-11T21:33:34.092Z,999.23
2023-04-11T21:43:39.425Z,999.31
2023-04-11T21:53:46.327Z,999.34
2023-04-11T22:03:54.783Z,999.30
2023-04-11T22:14:00.636Z,999.11
2023-04-11T22:24:06.116Z,998.95
2023-04-11T22:34:11.908Z,998.96
2023-04-11T22:44:17.278Z,998.81
2023-04-11T22:54:23.059Z,998.77
2023-04-11T23:04:28.365Z,998.54
2023-04-11T23:14:34.111Z,998.50
2023-04-11T23:24:39.805Z,998.39
2023-04-11T23:34:45.244Z,998.29
2023-04-11T23:44:51.006Z,998.14
2023-04-11T23:54:56.907Z,998.06
